Time;durP1;ratioP1;P1;durP2;ratioP2;P2;SDS_P1;SDS_P2;PMS_P1;PMS_P2;Temp;Humidity;BMP_temperature;BMP_pressure;BME280_temperature;BME280_humidity;BME280_pressure;Samples;Min_cycle;Max_cycle;Signal;HPM_P1;HPM_P2
2021/08/31 00:00:13;;;;;;;3.20;3.00;;;;;;;;;;5104701;28;24948;-67
2021/08/31 00:02:38;;;;;;;2.63;2.43;;;;;;;;;;5107612;28;25336;-69
2021/08/31 00:05:04;;;;;;;3.60;3.30;;;;;;;;;;5107462;28;24428;-69
2021/08/31 00:07:29;;;;;;;2.90;2.70;;;;;;;;;;5111942;27;24504;-69
2021/08/31 00:09:54;;;;;;;4.30;4.00;;;;;;;;;;5108092;28;24425;-69
2021/08/31 00:12:19;;;;;;;4.00;3.70;;;;;;;;;;5108662;28;24451;-69
2021/08/31 00:14:44;;;;;;;5.15;4.65;;;;;;;;;;5108293;28;24459;-67
2021/08/31 00:17:09;;;;;;;5.27;4.87;;;;;;;;;;5108867;28;24406;-67
2021/08/31 00:19:35;;;;;;;5.70;5.20;;;;;;;;;;5108076;28;24406;-68
2021/08/31 00:22:00;;;;;;;5.65;5.25;;;;;;;;;;5123174;27;24449;-68
2021/08/31 00:24:25;;;;;;;6.13;5.60;;;;;;;;;;5108804;28;24463;-68
2021/08/31 00:26:51;;;;;;;6.73;6.13;;;;;;;;;;5108230;28;24966;-67
2021/08/31 00:29:16;;;;;;;6.07;5.60;;;;;;;;;;5108244;28;24424;-67
2021/08/31 00:31:41;;;;;;;6.80;6.30;;;;;;;;;;5107665;28;24485;-68
2021/08/31 00:34:06;;;;;;;6.30;5.80;;;;;;;;;;5114541;27;24858;-67
2021/08/31 00:36:31;;;;;;;8.50;7.80;;;;;;;;;;5107942;28;24458;-68
2021/08/31 00:38:57;;;;;;;7.03;6.43;;;;;;;;;;5107978;28;24410;-67
2021/08/31 00:41:22;;;;;;;8.55;7.85;;;;;;;;;;5107243;28;24406;-68
2021/08/31 00:43:48;;;;;;;8.40;7.70;;;;;;;;;;5107987;28;24779;-68
2021/08/31 00:46:14;;;;;;;9.15;8.25;;;;;;;;;;5111454;27;24997;-68
2021/08/31 00:48:39;;;;;;;9.63;8.75;;;;;;;;;;5108528;28;24525;-66
2021/08/31 00:51:04;;;;;;;9.90;9.10;;;;;;;;;;5107799;28;24438;-66
2021/08/31 00:53:30;;;;;;;10.50;9.57;;;;;;;;;;5107953;28;24992;-66
2021/08/31 00:55:55;;;;;;;11.05;10.05;;;;;;;;;;5108121;28;24432;-66
2021/08/31 00:58:20;;;;;;;10.27;9.37;;;;;;;;;;5117892;27;24414;-66
2021/08/31 01:00:45;;;;;;;11.07;10.07;;;;;;;;;;5114580;28;24538;-66
2021/08/31 01:03:10;;;;;;;12.57;11.37;;;;;;;;;;5114659;28;24417;-66
2021/08/31 01:05:35;;;;;;;11.68;10.57;;;;;;;;;;5114857;28;24999;-67
2021/08/31 01:08:00;;;;;;;12.27;11.27;;;;;;;;;;5121346;27;24417;-67
2021/08/31 01:10:26;;;;;;;10.30;9.50;;;;;;;;;;5115230;28;24475;-65
2021/08/31 01:12:53;;;;;;;12.00;11.00;;;;;;;;;;5111613;28;25002;-66
2021/08/31 01:15:18;;;;;;;12.60;11.30;;;;;;;;;;5114162;28;24803;-65
2021/08/31 01:17:43;;;;;;;13.00;11.80;;;;;;;;;;5114192;27;24880;-66
2021/08/31 01:20:08;;;;;;;12.52;11.40;;;;;;;;;;5114679;28;25320;-66
2021/08/31 01:22:34;;;;;;;13.10;11.80;;;;;;;;;;5114926;28;24985;-66
2021/08/31 01:25:03;;;;;;;12.23;11.13;;;;;;;;;;5115056;28;24402;-66
2021/08/31 01:27:28;;;;;;;12.30;11.10;;;;;;;;;;5113671;28;24753;-66
2021/08/31 01:29:55;;;;;;;12.20;11.10;;;;;;;;;;5116250;27;24439;-66
2021/08/31 01:32:20;;;;;;;12.55;11.45;;;;;;;;;;5114954;28;25060;-66
2021/08/31 01:34:45;;;;;;;14.40;13.00;;;;;;;;;;5114906;28;24500;-66
2021/08/31 01:37:11;;;;;;;13.50;12.05;;;;;;;;;;5114491;28;24477;-66
2021/08/31 01:39:36;;;;;;;13.77;12.47;;;;;;;;;;5114313;28;24425;-67
2021/08/31 01:42:01;;;;;;;13.33;12.03;;;;;;;;;;5113654;27;24417;-66
2021/08/31 01:44:26;;;;;;;13.37;12.10;;;;;;;;;;5111391;28;24951;-67
2021/08/31 01:46:51;;;;;;;13.57;12.37;;;;;;;;;;5114405;28;24543;-67
2021/08/31 01:49:17;;;;;;;12.90;11.80;;;;;;;;;;5113395;28;24784;-66
2021/08/31 01:51:43;;;;;;;13.30;12.20;;;;;;;;;;5113564;28;24506;-67
2021/08/31 01:54:08;;;;;;;13.13;11.90;;;;;;;;;;5116772;27;24483;-67
2021/08/31 01:56:33;;;;;;;12.10;11.10;;;;;;;;;;5114393;28;24437;-67
2021/08/31 01:58:58;;;;;;;12.77;11.67;;;;;;;;;;5114274;28;25041;-67
2021/08/31 02:01:23;;;;;;;13.00;11.70;;;;;;;;;;5116513;27;24414;-67
2021/08/31 02:03:48;;;;;;;13.27;12.18;;;;;;;;;;5115011;27;24405;-66
2021/08/31 02:06:13;;;;;;;13.25;12.05;;;;;;;;;;5114074;28;24417;-67
2021/08/31 02:08:39;;;;;;;11.68;10.68;;;;;;;;;;5112920;28;24456;-67
2021/08/31 02:11:04;;;;;;;12.65;11.55;;;;;;;;;;5111062;28;24418;-67
2021/08/31 02:13:29;;;;;;;12.37;11.27;;;;;;;;;;5126057;27;24409;-67
2021/08/31 02:15:54;;;;;;;14.70;13.30;;;;;;;;;;5112182;27;25213;-66
2021/08/31 02:18:19;;;;;;;14.00;12.73;;;;;;;;;;5110736;28;24405;-66
2021/08/31 02:20:44;;;;;;;14.32;13.02;;;;;;;;;;5110695;28;24443;-66
2021/08/31 02:23:09;;;;;;;15.10;13.73;;;;;;;;;;5120485;27;25286;-66
2021/08/31 02:25:35;;;;;;;13.45;12.27;;;;;;;;;;5121082;27;24417;-66
2021/08/31 02:28:00;;;;;;;13.30;12.20;;;;;;;;;;5110567;28;25025;-64
2021/08/31 02:30:25;;;;;;;14.00;12.70;;;;;;;;;;5111314;28;24421;-65
2021/08/31 02:32:51;;;;;;;13.90;12.70;;;;;;;;;;5110405;28;24652;-65
2021/08/31 02:35:16;;;;;;;14.87;13.47;;;;;;;;;;5110656;28;24785;-65
2021/08/31 02:37:41;;;;;;;14.70;13.30;;;;;;;;;;5110734;28;24410;-66
2021/08/31 02:40:07;;;;;;;15.57;14.27;;;;;;;;;;5110861;28;24454;-65
2021/08/31 02:42:32;;;;;;;13.88;12.77;;;;;;;;;;5110461;28;24760;-66
2021/08/31 02:44:57;;;;;;;14.10;12.90;;;;;;;;;;5110384;28;24462;-65
2021/08/31 02:47:22;;;;;;;14.20;13.10;;;;;;;;;;5112132;27;24474;-65
2021/08/31 02:49:48;;;;;;;14.00;12.90;;;;;;;;;;5110017;28;24441;-66
2021/08/31 02:52:13;;;;;;;13.07;11.97;;;;;;;;;;5110198;28;24501;-65
2021/08/31 02:54:38;;;;;;;13.40;12.30;;;;;;;;;;5110589;28;24892;-67
2021/08/31 02:57:03;;;;;;;14.15;12.95;;;;;;;;;;5110750;27;24456;-65
2021/08/31 02:59:30;;;;;;;15.10;13.80;;;;;;;;;;5109677;27;24991;-65
2021/08/31 03:02:04;;;;;;;13.90;12.80;;;;;;;;;;5110329;28;24402;-65
2021/08/31 03:04:30;;;;;;;15.68;14.30;;;;;;;;;;5109043;28;24526;-65
2021/08/31 03:06:55;;;;;;;15.70;14.40;;;;;;;;;;5109163;28;24497;-66
2021/08/31 03:09:20;;;;;;;16.63;15.13;;;;;;;;;;5125094;27;25076;-64
2021/08/31 03:11:46;;;;;;;16.17;14.77;;;;;;;;;;5096504;28;24470;-66
2021/08/31 03:14:11;;;;;;;14.90;13.60;;;;;;;;;;5109320;28;24447;-65
2021/08/31 03:16:36;;;;;;;18.27;16.58;;;;;;;;;;5109653;28;24425;-64
2021/08/31 03:19:01;;;;;;;16.95;15.40;;;;;;;;;;5108986;28;24466;-66
2021/08/31 03:21:26;;;;;;;17.83;16.23;;;;;;;;;;5102638;28;24453;-66
2021/08/31 03:23:51;;;;;;;17.20;15.70;;;;;;;;;;5108940;28;24425;-65
2021/08/31 03:26:16;;;;;;;17.35;15.95;;;;;;;;;;5108965;28;24905;-66
2021/08/31 03:28:42;;;;;;;15.82;14.45;;;;;;;;;;5108901;28;24496;-65
2021/08/31 03:31:07;;;;;;;15.77;14.27;;;;;;;;;;5109373;28;24406;-66
2021/08/31 03:33:32;;;;;;;17.70;16.20;;;;;;;;;;5110506;27;24438;-66
2021/08/31 03:35:57;;;;;;;15.47;14.17;;;;;;;;;;5109182;28;24478;-66
2021/08/31 03:38:22;;;;;;;16.77;15.27;;;;;;;;;;5108988;28;24406;-65
2021/08/31 03:40:47;;;;;;;16.63;15.07;;;;;;;;;;5109353;28;24410;-66
2021/08/31 03:43:13;;;;;;;15.93;14.50;;;;;;;;;;5109011;28;24409;-65
2021/08/31 03:45:38;;;;;;;16.60;15.00;;;;;;;;;;5108236;28;24521;-65
2021/08/31 03:48:03;;;;;;;17.80;16.00;;;;;;;;;;5107976;28;24401;-65
2021/08/31 03:50:28;;;;;;;16.20;14.60;;;;;;;;;;5108194;28;24445;-66
2021/08/31 03:52:53;;;;;;;16.10;14.70;;;;;;;;;;5109047;28;24453;-65
2021/08/31 03:55:18;;;;;;;15.33;13.93;;;;;;;;;;5108693;28;24817;-66
2021/08/31 03:57:44;;;;;;;15.15;13.85;;;;;;;;;;5108849;28;24483;-67
2021/08/31 04:00:09;;;;;;;16.63;14.83;;;;;;;;;;5108323;28;24422;-66
2021/08/31 04:02:34;;;;;;;14.40;13.20;;;;;;;;;;5108682;28;24402;-67
2021/08/31 04:04:59;;;;;;;14.77;13.47;;;;;;;;;;5108754;28;24496;-66
2021/08/31 04:07:25;;;;;;;13.18;12.05;;;;;;;;;;5109035;28;24420;-66
2021/08/31 04:09:50;;;;;;;16.00;14.60;;;;;;;;;;5108585;27;24838;-65
2021/08/31 04:12:16;;;;;;;15.70;14.40;;;;;;;;;;5104839;28;24422;-65
2021/08/31 04:14:41;;;;;;;14.40;13.20;;;;;;;;;;5108061;28;25128;-65
2021/08/31 04:17:06;;;;;;;14.63;13.27;;;;;;;;;;5108141;28;24436;-65
2021/08/31 04:19:31;;;;;;;15.40;13.97;;;;;;;;;;5108904;28;24390;-65
2021/08/31 04:21:56;;;;;;;14.60;13.23;;;;;;;;;;5108359;28;24441;-64
2021/08/31 04:24:21;;;;;;;14.10;12.80;;;;;;;;;;5126793;27;24508;-66
2021/08/31 04:26:46;;;;;;;13.60;12.30;;;;;;;;;;5116268;27;25018;-65
2021/08/31 04:29:12;;;;;;;15.20;13.80;;;;;;;;;;5108243;28;24425;-66
2021/08/31 04:31:37;;;;;;;14.90;13.60;;;;;;;;;;5108315;28;24462;-65
2021/08/31 04:34:02;;;;;;;14.63;13.23;;;;;;;;;;5099968;28;24406;-66
2021/08/31 04:36:27;;;;;;;15.13;13.63;;;;;;;;;;5108818;27;24425;-65
2021/08/31 04:38:53;;;;;;;14.57;13.23;;;;;;;;;;5107252;28;25008;-63
2021/08/31 04:41:18;;;;;;;12.80;11.70;;;;;;;;;;5105355;27;24978;-64
2021/08/31 04:43:43;;;;;;;13.60;12.40;;;;;;;;;;5108101;28;24413;-66
2021/08/31 04:46:09;;;;;;;14.13;12.87;;;;;;;;;;5107926;28;24686;-66
2021/08/31 04:48:35;;;;;;;13.10;12.07;;;;;;;;;;5107618;28;24421;-65
2021/08/31 04:51:00;;;;;;;13.17;12.07;;;;;;;;;;5105490;28;24472;-64
2021/08/31 04:53:25;;;;;;;12.90;11.70;;;;;;;;;;5106317;28;24766;-64
2021/08/31 04:55:50;;;;;;;13.80;12.40;;;;;;;;;;5104728;28;24428;-64
2021/08/31 04:58:15;;;;;;;13.40;12.20;;;;;;;;;;5105175;28;25026;-64
2021/08/31 05:00:41;;;;;;;14.05;12.75;;;;;;;;;;5105040;28;24378;-63
2021/08/31 05:03:06;;;;;;;14.20;12.90;;;;;;;;;;5106169;28;24509;-64
2021/08/31 05:05:31;;;;;;;14.50;13.10;;;;;;;;;;5124659;28;24755;-63
2021/08/31 05:07:56;;;;;;;15.38;13.88;;;;;;;;;;5115236;28;24550;-64
2021/08/31 05:10:21;;;;;;;14.30;12.90;;;;;;;;;;5105088;28;25013;-64
2021/08/31 05:12:46;;;;;;;13.50;12.20;;;;;;;;;;5105369;28;24412;-64
2021/08/31 05:15:12;;;;;;;14.65;13.25;;;;;;;;;;5105416;28;24397;-64
2021/08/31 05:17:38;;;;;;;14.95;13.45;;;;;;;;;;5116590;28;24413;-63
2021/08/31 05:20:04;;;;;;;13.40;12.10;;;;;;;;;;5125880;28;24414;-63
2021/08/31 05:22:29;;;;;;;13.80;12.50;;;;;;;;;;5125126;28;24404;-63
2021/08/31 05:24:55;;;;;;;15.67;14.17;;;;;;;;;;5104683;28;24414;-63
2021/08/31 05:27:21;;;;;;;13.27;12.13;;;;;;;;;;5105658;28;24509;-63
2021/08/31 05:29:46;;;;;;;14.50;13.30;;;;;;;;;;5104614;28;24752;-63
2021/08/31 05:32:11;;;;;;;15.40;14.00;;;;;;;;;;5104883;28;24409;-64
2021/08/31 05:34:37;;;;;;;17.33;15.63;;;;;;;;;;5093414;28;24434;-64
2021/08/31 05:37:03;;;;;;;14.52;13.23;;;;;;;;;;5084952;28;24422;-64
2021/08/31 05:39:33;;;;;;;14.83;13.53;;;;;;;;;;5101499;28;24395;-65
2021/08/31 05:41:58;;;;;;;15.38;14.07;;;;;;;;;;5121872;28;25226;-65
2021/08/31 05:44:23;;;;;;;14.95;13.55;;;;;;;;;;5126444;27;24419;-64
2021/08/31 05:46:49;;;;;;;17.17;15.38;;;;;;;;;;5129091;27;24751;-63
2021/08/31 05:49:14;;;;;;;16.98;15.27;;;;;;;;;;5128377;27;24548;-64
2021/08/31 05:51:39;;;;;;;15.90;14.35;;;;;;;;;;5127477;27;24796;-63
2021/08/31 05:54:04;;;;;;;16.40;14.80;;;;;;;;;;5128837;27;24747;-63
2021/08/31 05:56:29;;;;;;;15.57;14.02;;;;;;;;;;5128941;27;24425;-64
2021/08/31 05:58:54;;;;;;;16.03;14.63;;;;;;;;;;5110819;27;24405;-64
2021/08/31 06:01:19;;;;;;;15.50;14.10;;;;;;;;;;5112469;27;24409;-64
2021/08/31 06:03:46;;;;;;;15.30;13.90;;;;;;;;;;5130171;27;24807;-63
2021/08/31 06:06:13;;;;;;;15.40;14.00;;;;;;;;;;5131549;27;24396;-64
2021/08/31 06:08:38;;;;;;;15.60;14.20;;;;;;;;;;5116739;27;24816;-64
2021/08/31 06:11:03;;;;;;;15.80;14.10;;;;;;;;;;5100947;28;24928;-64
2021/08/31 06:13:29;;;;;;;16.63;14.50;;;;;;;;;;5108634;27;24406;-64
2021/08/31 06:15:54;;;;;;;15.93;14.40;;;;;;;;;;5111041;28;24800;-64
2021/08/31 06:18:19;;;;;;;15.57;14.18;;;;;;;;;;5110900;28;24390;-65
2021/08/31 06:20:44;;;;;;;15.40;14.10;;;;;;;;;;5110707;28;24443;-65
2021/08/31 06:23:09;;;;;;;14.25;12.95;;;;;;;;;;5116535;27;24432;-65
2021/08/31 06:25:34;;;;;;;13.60;12.50;;;;;;;;;;5111419;27;24490;-63
2021/08/31 06:27:59;;;;;;;15.35;13.95;;;;;;;;;;5110895;28;24958;-64
2021/08/31 06:30:25;;;;;;;14.82;13.50;;;;;;;;;;5110129;28;24402;-63
2021/08/31 06:32:50;;;;;;;12.70;11.70;;;;;;;;;;5111066;28;24429;-64
2021/08/31 06:35:15;;;;;;;15.70;14.30;;;;;;;;;;5117270;27;24950;-64
2021/08/31 06:37:40;;;;;;;15.10;13.70;;;;;;;;;;5131002;27;24432;-64
2021/08/31 06:40:05;;;;;;;15.30;13.90;;;;;;;;;;5130950;27;24378;-64
2021/08/31 06:42:31;;;;;;;14.10;12.80;;;;;;;;;;5113892;27;24429;-63
2021/08/31 06:44:56;;;;;;;15.13;13.77;;;;;;;;;;5110863;27;24777;-64
2021/08/31 06:47:21;;;;;;;14.90;13.60;;;;;;;;;;5128046;27;24418;-64
2021/08/31 06:49:46;;;;;;;15.10;13.80;;;;;;;;;;5120425;27;24994;-64
2021/08/31 06:52:11;;;;;;;14.30;13.10;;;;;;;;;;5110019;28;25050;-64
2021/08/31 06:54:37;;;;;;;14.40;13.20;;;;;;;;;;5110205;28;24401;-64
2021/08/31 06:57:02;;;;;;;15.95;14.48;;;;;;;;;;5112911;27;24479;-64
2021/08/31 06:59:29;;;;;;;15.47;13.87;;;;;;;;;;5127856;27;24416;-64
2021/08/31 07:01:54;;;;;;;14.93;13.52;;;;;;;;;;5130598;27;24392;-64
2021/08/31 07:04:19;;;;;;;13.85;12.65;;;;;;;;;;5130427;27;24926;-63
2021/08/31 07:06:44;;;;;;;15.02;13.52;;;;;;;;;;5130706;27;24432;-64
2021/08/31 07:09:09;;;;;;;14.18;12.93;;;;;;;;;;5122488;27;24455;-63
2021/08/31 07:11:34;;;;;;;14.55;13.35;;;;;;;;;;5109369;28;24744;-63
2021/08/31 07:13:59;;;;;;;13.07;11.97;;;;;;;;;;5109649;28;24447;-63
2021/08/31 07:16:25;;;;;;;14.40;13.10;;;;;;;;;;5109667;28;24436;-63
2021/08/31 07:18:50;;;;;;;15.55;14.07;;;;;;;;;;5113951;27;24456;-63
2021/08/31 07:21:15;;;;;;;13.77;12.48;;;;;;;;;;5129941;27;24453;-63
2021/08/31 07:23:40;;;;;;;13.33;12.03;;;;;;;;;;5130249;27;25278;-63
2021/08/31 07:26:05;;;;;;;13.90;12.60;;;;;;;;;;5130368;27;24400;-63
2021/08/31 07:28:31;;;;;;;15.05;13.65;;;;;;;;;;5130085;27;24400;-63
2021/08/31 07:30:56;;;;;;;13.67;12.37;;;;;;;;;;5127434;27;24834;-63
2021/08/31 07:33:21;;;;;;;14.45;13.15;;;;;;;;;;5130069;27;24392;-63
2021/08/31 07:35:47;;;;;;;13.50;12.30;;;;;;;;;;5130124;27;24861;-63
2021/08/31 07:38:12;;;;;;;13.40;12.30;;;;;;;;;;5128086;27;24413;-63
2021/08/31 07:40:38;;;;;;;13.20;12.00;;;;;;;;;;5129707;27;24390;-63
2021/08/31 07:43:03;;;;;;;11.90;10.80;;;;;;;;;;5129867;27;24492;-63
2021/08/31 07:45:28;;;;;;;12.30;11.10;;;;;;;;;;5129690;27;24401;-63
2021/08/31 07:47:53;;;;;;;12.15;11.13;;;;;;;;;;5113680;27;24417;-64
2021/08/31 07:50:18;;;;;;;11.98;10.90;;;;;;;;;;5129118;27;24492;-64
2021/08/31 07:52:44;;;;;;;11.20;10.20;;;;;;;;;;5129875;27;25274;-64
2021/08/31 07:55:09;;;;;;;10.90;9.90;;;;;;;;;;5122446;27;24431;-64
2021/08/31 07:57:35;;;;;;;12.20;11.10;;;;;;;;;;5108734;28;24958;-64
2021/08/31 08:00:00;;;;;;;12.70;11.60;;;;;;;;;;5117395;27;24421;-64
2021/08/31 08:02:26;;;;;;;12.10;11.10;;;;;;;;;;5120866;27;24414;-64
2021/08/31 08:04:58;;;;;;;13.23;12.07;;;;;;;;;;5108837;28;24398;-64
2021/08/31 08:07:23;;;;;;;14.88;13.57;;;;;;;;;;5107996;28;24408;-63
2021/08/31 08:09:48;;;;;;;13.57;12.27;;;;;;;;;;5117015;27;25001;-63
2021/08/31 08:12:13;;;;;;;13.80;12.60;;;;;;;;;;5129234;27;24472;-63
2021/08/31 08:14:39;;;;;;;13.18;11.98;;;;;;;;;;5129569;27;24401;-64
2021/08/31 08:17:04;;;;;;;12.20;11.10;;;;;;;;;;5118271;27;24780;-63
2021/08/31 08:19:29;;;;;;;12.43;11.33;;;;;;;;;;5108725;27;24439;-63
2021/08/31 08:21:54;;;;;;;14.55;13.25;;;;;;;;;;5129198;27;24937;-64
2021/08/31 08:24:19;;;;;;;12.23;11.17;;;;;;;;;;5129014;27;24933;-63
2021/08/31 08:26:44;;;;;;;13.80;12.40;;;;;;;;;;5129258;27;24915;-63
2021/08/31 08:29:09;;;;;;;13.82;12.63;;;;;;;;;;5129447;27;25036;-63
2021/08/31 08:31:35;;;;;;;13.43;12.23;;;;;;;;;;5114348;27;24410;-63
2021/08/31 08:34:00;;;;;;;12.60;11.60;;;;;;;;;;5108300;28;24439;-64
2021/08/31 08:36:26;;;;;;;14.32;13.13;;;;;;;;;;5108077;28;24465;-63
2021/08/31 08:38:51;;;;;;;14.23;13.00;;;;;;;;;;5108152;28;24422;-64
2021/08/31 08:41:16;;;;;;;13.60;12.40;;;;;;;;;;5108681;27;24500;-63
2021/08/31 08:43:41;;;;;;;14.53;13.20;;;;;;;;;;5108574;28;24448;-63
2021/08/31 08:46:07;;;;;;;14.10;12.97;;;;;;;;;;5108409;28;24481;-63
2021/08/31 08:48:32;;;;;;;13.73;12.63;;;;;;;;;;5107952;28;24959;-63
2021/08/31 08:50:58;;;;;;;13.63;12.37;;;;;;;;;;5107802;28;24486;-63
2021/08/31 08:53:25;;;;;;;15.07;13.77;;;;;;;;;;5128410;27;24515;-63
2021/08/31 08:55:51;;;;;;;14.70;13.20;;;;;;;;;;5128757;27;24508;-63
2021/08/31 08:58:17;;;;;;;14.43;13.13;;;;;;;;;;5128630;28;24386;-63
2021/08/31 09:00:49;;;;;;;16.37;14.87;;;;;;;;;;5110428;28;25011;-63
2021/08/31 09:03:18;;;;;;;13.70;12.50;;;;;;;;;;5122772;28;24451;-63
2021/08/31 09:05:43;;;;;;;13.57;12.27;;;;;;;;;;5128724;28;24472;-63
2021/08/31 09:08:08;;;;;;;14.48;13.25;;;;;;;;;;5108937;28;24597;-63
2021/08/31 09:10:34;;;;;;;13.57;12.27;;;;;;;;;;5107723;28;24735;-63
2021/08/31 09:13:00;;;;;;;13.25;12.05;;;;;;;;;;5115454;28;24821;-63
2021/08/31 09:15:31;;;;;;;14.35;13.10;;;;;;;;;;5127698;28;24513;-64
2021/08/31 09:18:05;;;;;;;14.90;13.50;;;;;;;;;;5114224;28;24421;-63
2021/08/31 09:20:36;;;;;;;14.27;12.98;;;;;;;;;;5111791;28;24401;-64
2021/08/31 09:23:01;;;;;;;14.05;12.77;;;;;;;;;;5115167;27;24521;-64
2021/08/31 09:25:40;;;;;;;13.53;12.33;;;;;;;;;;5114808;27;24508;-63
2021/08/31 09:28:20;;;;;;;12.40;11.40;;;;;;;;;;5111642;28;24818;-63
2021/08/31 09:30:54;;;;;;;14.75;13.57;;;;;;;;;;5111999;28;24969;-63
2021/08/31 09:33:19;;;;;;;13.40;12.10;;;;;;;;;;5112852;27;24483;-63
2021/08/31 09:35:47;;;;;;;13.98;12.68;;;;;;;;;;5132463;27;24436;-63
2021/08/31 09:38:14;;;;;;;13.10;12.00;;;;;;;;;;5132447;27;24396;-63
2021/08/31 09:40:46;;;;;;;12.30;11.30;;;;;;;;;;5131792;27;24496;-62
2021/08/31 09:43:15;;;;;;;11.88;10.80;;;;;;;;;;5112450;27;24412;-62
2021/08/31 09:45:41;;;;;;;12.60;11.50;;;;;;;;;;5127383;27;24433;-62
2021/08/31 09:48:07;;;;;;;12.13;11.02;;;;;;;;;;5132156;27;24397;-62
2021/08/31 09:50:37;;;;;;;9.70;8.90;;;;;;;;;;5131505;27;24787;-63
2021/08/31 09:53:04;;;;;;;10.05;9.25;;;;;;;;;;5113512;27;25005;-63
2021/08/31 09:55:29;;;;;;;8.80;8.10;;;;;;;;;;5129751;27;24436;-63
2021/08/31 09:58:09;;;;;;;8.77;8.07;;;;;;;;;;5119387;27;24490;-62
2021/08/31 10:00:35;;;;;;;8.68;7.88;;;;;;;;;;5110915;28;24378;-63
2021/08/31 10:03:00;;;;;;;8.47;7.77;;;;;;;;;;5111752;27;24439;-63
2021/08/31 10:05:26;;;;;;;7.60;7.10;;;;;;;;;;5110921;28;24405;-64
2021/08/31 10:07:52;;;;;;;9.25;8.48;;;;;;;;;;5111209;28;24980;-63
2021/08/31 10:10:18;;;;;;;7.53;6.93;;;;;;;;;;5111115;28;24429;-64
2021/08/31 10:12:43;;;;;;;8.23;7.57;;;;;;;;;;5111029;27;24779;-64
2021/08/31 10:15:09;;;;;;;8.00;7.30;;;;;;;;;;5110602;28;24997;-63
2021/08/31 10:17:34;;;;;;;7.80;7.20;;;;;;;;;;5111086;28;24382;-64
2021/08/31 10:20:01;;;;;;;7.47;6.97;;;;;;;;;;5111436;28;24390;-63
2021/08/31 10:22:26;;;;;;;7.60;7.00;;;;;;;;;;5115823;27;24465;-63
2021/08/31 10:24:52;;;;;;;8.40;7.70;;;;;;;;;;5111257;27;24500;-64
2021/08/31 10:27:28;;;;;;;8.13;7.53;;;;;;;;;;5111033;28;24497;-64
2021/08/31 10:30:13;;;;;;;7.35;6.85;;;;;;;;;;5109808;28;24400;-64
2021/08/31 10:32:39;;;;;;;8.23;7.53;;;;;;;;;;5112462;27;24425;-63
2021/08/31 10:35:04;;;;;;;7.15;6.65;;;;;;;;;;5131138;27;24421;-64
2021/08/31 10:37:43;;;;;;;6.97;6.47;;;;;;;;;;5130672;27;24508;-63
2021/08/31 10:40:08;;;;;;;7.93;7.32;;;;;;;;;;5131263;27;24394;-63
2021/08/31 10:42:33;;;;;;;7.15;6.65;;;;;;;;;;5113358;27;24466;-63
2021/08/31 10:45:03;;;;;;;7.45;6.85;;;;;;;;;;5112555;27;24576;-63
2021/08/31 10:47:33;;;;;;;7.60;7.00;;;;;;;;;;5110260;28;24442;-64
2021/08/31 10:49:58;;;;;;;7.82;7.22;;;;;;;;;;5110032;28;24437;-64
2021/08/31 10:52:43;;;;;;;8.50;7.90;;;;;;;;;;5110112;28;24393;-63
2021/08/31 10:55:23;;;;;;;8.30;7.60;;;;;;;;;;5122441;27;24516;-63
2021/08/31 10:57:49;;;;;;;9.88;8.98;;;;;;;;;;5117487;27;24424;-63
2021/08/31 11:00:16;;;;;;;9.90;9.10;;;;;;;;;;5110175;28;24823;-62
2021/08/31 11:02:47;;;;;;;8.80;8.10;;;;;;;;;;5109926;28;24417;-63
2021/08/31 11:05:22;;;;;;;9.10;8.38;;;;;;;;;;5117765;27;24421;-62
2021/08/31 11:08:07;;;;;;;11.25;10.30;;;;;;;;;;5110009;28;24431;-62
2021/08/31 11:10:32;;;;;;;12.45;11.45;;;;;;;;;;5098344;28;24461;-62
2021/08/31 11:13:08;;;;;;;11.65;10.65;;;;;;;;;;5109912;28;24432;-63
2021/08/31 11:15:33;;;;;;;10.93;10.03;;;;;;;;;;5107676;27;24571;-63
2021/08/31 11:17:58;;;;;;;11.37;10.47;;;;;;;;;;5107444;28;24393;-62
2021/08/31 11:20:28;;;;;;;11.10;10.20;;;;;;;;;;5109376;28;24401;-62
2021/08/31 11:23:19;;;;;;;12.48;11.48;;;;;;;;;;5109237;28;24394;-61
2021/08/31 11:25:46;;;;;;;12.30;11.30;;;;;;;;;;5096890;27;25040;-62
2021/08/31 11:28:13;;;;;;;12.45;11.40;;;;;;;;;;5130226;27;24401;-62
2021/08/31 11:30:50;;;;;;;13.97;12.77;;;;;;;;;;5129400;27;24427;-62
2021/08/31 11:33:18;;;;;;;13.30;12.20;;;;;;;;;;5129851;27;25048;-62
2021/08/31 11:35:43;;;;;;;12.50;11.50;;;;;;;;;;5129313;27;24417;-62
2021/08/31 11:38:08;;;;;;;12.53;11.53;;;;;;;;;;5115558;27;24424;-62
2021/08/31 11:40:33;;;;;;;12.83;11.73;;;;;;;;;;5108959;28;24429;-63
2021/08/31 11:42:59;;;;;;;11.40;10.50;;;;;;;;;;5108432;28;24436;-63
2021/08/31 11:45:33;;;;;;;13.20;12.10;;;;;;;;;;5109068;28;24389;-63
2021/08/31 11:47:58;;;;;;;12.70;11.60;;;;;;;;;;5109002;28;24462;-63
2021/08/31 11:50:24;;;;;;;13.73;12.60;;;;;;;;;;5091660;28;24437;-63
2021/08/31 11:52:49;;;;;;;12.83;11.83;;;;;;;;;;5108388;28;24400;-64
2021/08/31 11:55:20;;;;;;;12.23;11.23;;;;;;;;;;5108835;28;24445;-64
2021/08/31 11:57:46;;;;;;;13.25;12.05;;;;;;;;;;5108386;28;24413;-63
2021/08/31 12:00:13;;;;;;;12.45;11.45;;;;;;;;;;5109526;27;24443;-63
2021/08/31 12:02:41;;;;;;;13.65;12.45;;;;;;;;;;5108813;28;24457;-63
2021/08/31 12:05:07;;;;;;;13.50;12.30;;;;;;;;;;5108769;28;24410;-63
2021/08/31 12:07:39;;;;;;;12.20;11.10;;;;;;;;;;5108367;28;24950;-64
2021/08/31 12:10:12;;;;;;;11.68;10.68;;;;;;;;;;5115569;27;24428;-63
2021/08/31 12:12:38;;;;;;;12.98;11.95;;;;;;;;;;5107212;28;24416;-62
2021/08/31 12:15:04;;;;;;;14.13;12.82;;;;;;;;;;5108872;28;24405;-61
2021/08/31 12:17:33;;;;;;;11.90;10.90;;;;;;;;;;5108700;28;24523;-62
2021/08/31 12:20:02;;;;;;;13.55;12.35;;;;;;;;;;5109139;27;24402;-62
2021/08/31 12:22:31;;;;;;;13.10;12.00;;;;;;;;;;5128743;27;24401;-62
2021/08/31 12:24:57;;;;;;;12.55;11.45;;;;;;;;;;5128669;27;24435;-62
2021/08/31 12:27:22;;;;;;;13.23;12.03;;;;;;;;;;5114665;27;24498;-62
2021/08/31 12:29:53;;;;;;;11.90;10.85;;;;;;;;;;5108329;28;24955;-62
2021/08/31 12:32:28;;;;;;;12.25;11.30;;;;;;;;;;5124372;27;24416;-61
2021/08/31 12:34:54;;;;;;;12.20;11.10;;;;;;;;;;5128570;27;24450;-61
2021/08/31 12:37:33;;;;;;;12.00;11.00;;;;;;;;;;5128842;27;24456;-61
2021/08/31 12:40:09;;;;;;;11.40;10.50;;;;;;;;;;5128658;27;24392;-62
2021/08/31 12:42:34;;;;;;;11.48;10.57;;;;;;;;;;5122001;27;24835;-61
2021/08/31 12:44:59;;;;;;;11.37;10.40;;;;;;;;;;5128632;27;24977;-61
2021/08/31 12:47:24;;;;;;;11.13;10.32;;;;;;;;;;5128483;27;24822;-61
2021/08/31 12:49:49;;;;;;;12.30;11.20;;;;;;;;;;5128372;27;24809;-62
2021/08/31 12:52:16;;;;;;;10.90;10.00;;;;;;;;;;5126393;27;24421;-61
2021/08/31 12:54:41;;;;;;;11.15;10.15;;;;;;;;;;5128304;27;24405;-61
2021/08/31 12:57:07;;;;;;;12.30;11.20;;;;;;;;;;5117968;27;24426;-62
2021/08/31 12:59:44;;;;;;;10.53;9.73;;;;;;;;;;5107718;28;24392;-61
2021/08/31 13:02:13;;;;;;;12.27;11.18;;;;;;;;;;5107603;28;24561;-61
2021/08/31 13:04:39;;;;;;;10.30;9.50;;;;;;;;;;5126112;28;24787;-62
2021/08/31 13:07:08;;;;;;;12.00;11.00;;;;;;;;;;5128443;28;24759;-61
2021/08/31 13:09:34;;;;;;;13.10;12.00;;;;;;;;;;5127999;28;24974;-62
2021/08/31 13:11:59;;;;;;;12.30;11.30;;;;;;;;;;5128333;28;24421;-62
2021/08/31 13:14:29;;;;;;;13.77;12.57;;;;;;;;;;5119341;28;24953;-62
2021/08/31 13:16:55;;;;;;;14.80;13.50;;;;;;;;;;5107064;28;24444;-62
2021/08/31 13:19:21;;;;;;;13.40;12.30;;;;;;;;;;5108095;28;24378;-62
2021/08/31 13:21:47;;;;;;;15.20;13.90;;;;;;;;;;5107558;28;24924;-62
2021/08/31 13:24:12;;;;;;;14.70;13.40;;;;;;;;;;5112592;28;24418;-62
2021/08/31 13:26:38;;;;;;;13.93;12.83;;;;;;;;;;5128360;28;24476;-61
2021/08/31 13:29:03;;;;;;;13.30;12.20;;;;;;;;;;5128470;28;24392;-61
2021/08/31 13:31:29;;;;;;;14.50;13.30;;;;;;;;;;5108449;28;24440;-62
2021/08/31 13:33:54;;;;;;;12.00;11.10;;;;;;;;;;5107493;28;24979;-61
2021/08/31 13:36:19;;;;;;;15.13;13.93;;;;;;;;;;5125693;28;24430;-62
2021/08/31 13:38:44;;;;;;;15.37;14.07;;;;;;;;;;5128149;28;24416;-61
2021/08/31 13:41:10;;;;;;;14.20;12.90;;;;;;;;;;5128277;28;24392;-61
2021/08/31 13:43:36;;;;;;;14.03;12.93;;;;;;;;;;5127667;28;24445;-61
2021/08/31 13:46:01;;;;;;;14.27;13.07;;;;;;;;;;5116683;28;24517;-61
2021/08/31 13:48:28;;;;;;;12.27;11.27;;;;;;;;;;5110425;28;24516;-61
2021/08/31 13:50:53;;;;;;;14.55;13.30;;;;;;;;;;5122231;28;24451;-60
2021/08/31 13:53:18;;;;;;;12.70;11.70;;;;;;;;;;5106886;28;24471;-61
2021/08/31 13:55:43;;;;;;;12.27;11.27;;;;;;;;;;5107079;28;24436;-60
2021/08/31 13:58:12;;;;;;;14.90;13.70;;;;;;;;;;5107301;28;24874;-61
2021/08/31 14:00:38;;;;;;;13.20;12.13;;;;;;;;;;5113359;28;24433;-61
2021/08/31 14:03:03;;;;;;;12.93;11.93;;;;;;;;;;5106937;28;24436;-61
2021/08/31 14:05:28;;;;;;;11.95;11.05;;;;;;;;;;5107962;28;24451;-62
2021/08/31 14:07:53;;;;;;;11.10;10.23;;;;;;;;;;5110870;28;25257;-62
2021/08/31 14:10:19;;;;;;;11.52;10.63;;;;;;;;;;5112225;27;24414;-61
2021/08/31 14:12:44;;;;;;;11.50;10.70;;;;;;;;;;5110761;28;24408;-61
2021/08/31 14:15:09;;;;;;;11.40;10.50;;;;;;;;;;5111006;28;24402;-61